• Join FlightAware (Why Join?)
  • Login
  • US Flag 
01:08PM EDT


 

Airport Tracker/Info


-or-


 

Live Flight TrackerFlight Track Log ✈ EJM685 ✈ 16-Jul-2013 ✈ KTEB - KSTP

Flight Track Log - Related Links

Times and Time Zones

All times are in EDT time to prevent confusion due to time zone crossing. See the EJM685 flight status page for this flight to view local times or setup timezone preferences in your user account.

Time Position Orientation Groundspeed Altitude Reporting Facility
EDT Latitude Longitude Course Direction KTS MPH feet Rate Location/Type
06:54AM 40.8833 -74.0333 311° West 172 198 1,600  Level New York TRACON
06:54AM 40.9167 -74.0833 311° West 231 266 3,700 2,160 Climbing New York TRACON
06:55AM 40.9167 -74.1833 270° West 292 336 5,900 2,520 Climbing New York TRACON
06:56AM 40.9333 -74.2833 282° West 276 318 8,800 2,340 Climbing New York TRACON
06:57AM 41.0000 -74.3333 330° Northwest 290 334 10,600 2,400 Climbing New York TRACON
07:00AM 41.1925 -74.3583 354° North 367 422 16,400 2,640 Climbing New York Center
07:01AM 41.2717 -74.4231 328° Northwest 367 422 18,900 2,400 Climbing New York Center
07:02AM 41.3469 -74.5517 308° West 380 437 21,400 2,460 Climbing New York Center
07:03AM 41.4014 -74.6681 302° West 394 453 23,800 2,340 Climbing New York Center
07:04AM 41.4719 -74.7994 306° West 421 484 26,100 2,280 Climbing New York Center
07:05AM 41.5442 -74.9394 305° West 439 505 28,400 2,220 Climbing New York Center
07:06AM 41.6183 -75.0775 306° West 458 527 30,500 2,040 Climbing New York Center
07:07AM 41.6919 -75.2239 304° West 468 539 32,600 2,340 Climbing New York Center
07:08AM 41.7697 -75.3708 305° West 479 551 35,200 2,820 Climbing New York Center
07:09AM 41.8411 -75.5122 304° West 479 551 38,200 2,580 Climbing New York Center
07:10AM 41.9106 -75.6508 304° West 472 543 40,500 1,800 Climbing New York Center
07:11AM 41.9819 -75.7872 305° West 459 528 42,000 1,320 Climbing New York Center
07:12AM 42.0508 -75.9267 304° West 454 522 43,200 1,320 Climbing New York Center
07:13AM 42.1200 -76.0606 305° West 454 522 44,700 1,200 Climbing New York Center
07:14AM 42.1800 -76.2053 299° West 454 522 45,700 660 Climbing New York Center
07:15AM 42.2781 -76.5164 293° West 451 519 46,700 420 Climbing Cleveland Center
07:16AM 42.3272 -76.6733 293° West 451 519 47,000 120 Climbing Cleveland Center
07:17AM 42.3783 -76.8333 293° West 456 525 47,000  Level Cleveland Center
07:18AM 42.4272 -76.9881 293° West 456 525 47,000  Level Cleveland Center
07:19AM 42.4756 -77.1456 293° West 456 525 47,000  Level Cleveland Center
07:20AM 42.5242 -77.3036 293° West 456 525 47,000  Level Cleveland Center
07:21AM 42.5631 -77.4258 293° West 451 519 47,000  Level Cleveland Center
07:22AM 42.6200 -77.6119 293° West 466 536 47,000  Level Cleveland Center
07:23AM 42.6656 -77.7708 291° West 466 536 47,000  Level Cleveland Center
07:24AM 42.7197 -77.9381 294° West 466 536 47,000  Level Cleveland Center
07:25AM 42.7669 -78.0914 293° West 466 536 47,000  Level Cleveland Center
07:26AM 42.8161 -78.2567 292° West 466 536 47,000  Level Cleveland Center
07:27AM 42.8631 -78.4192 292° West 466 536 47,000  Level Cleveland Center
07:28AM 42.9117 -78.5792 293° West 466 536 47,000  Level Cleveland Center
07:29AM 42.9603 -78.7419 292° West 466 536 47,000  Level Cleveland Center
07:30AM 43.0128 -78.9022 294° West 466 536 47,000  Level Cleveland Center
07:31AM 43.0608 -79.0631 292° West 466 536 47,000  Level Cleveland Center
07:33AM 43.1167 -79.2500 292° West 460 529 47,000  Level Toronto Center
07:34AM 43.1667 -79.4333 291° West 470 541 47,000  Level Toronto Center
07:35AM 43.2167 -79.5833 295° West 460 529 47,000  Level Toronto Center
07:36AM 43.2667 -79.7500 292° West 460 529 47,000  Level Toronto Center
07:37AM 43.3167 -79.9000 295° West 460 529 47,000  Level Toronto Center
07:38AM 43.3667 -80.0667 292° West 460 529 47,000  Level Toronto Center
07:39AM 43.4167 -80.2333 292° West 460 529 47,000  Level Toronto Center
07:40AM 43.4667 -80.3833 295° West 460 529 47,000  Level Toronto Center
07:41AM 43.5167 -80.5500 293° West 460 529 47,000  Level Toronto Center
07:42AM 43.5667 -80.6833 297° West 450 518 47,000  Level Toronto Center
07:43AM 43.6167 -80.8833 289° West 460 529 47,000  Level Toronto Center
07:44AM 43.6667 -81.0167 297° West 460 529 47,000  Level Toronto Center
07:45AM 43.7333 -81.2000 297° West 460 529 47,000  Level Toronto Center
07:46AM 43.7833 -81.3500 295° West 470 541 47,000  Level Toronto Center
07:47AM 43.8333 -81.5000 295° West 470 541 47,000  Level Toronto Center
07:48AM 43.9000 -81.6667 299° West 460 529 47,000  Level Toronto Center
07:49AM 43.9500 -81.8333 293° West 460 529 47,000  Level Toronto Center
07:50AM 43.9833 -82.0000 286° West 460 529 47,000  Level Toronto Center
07:51AM 44.0500 -82.1667 299° West 460 529 47,000  Level Toronto Center
07:52AM 44.1000 -82.3333 293° West 460 529 47,000  Level Toronto Center
07:53AM 44.1500 -82.4833 295° West 460 529 47,000  Level Toronto Center
07:54AM 44.1833 -82.6500 286° West 460 529 47,000  Level Toronto Center
07:55AM 44.2000 -82.8167 278° West 460 529 47,000  Level Toronto Center
07:56AM 44.2333 -83.0000 284° West 460 529 47,000  Level Toronto Center
07:57AM 44.2667 -83.1667 286° West 460 529 47,000  Level Toronto Center
07:58AM 44.2833 -83.3667 277° West 460 529 47,000  Level Toronto Center
07:59AM 44.3167 -83.5333 286° West 450 518 47,000  Level Toronto Center
08:00AM 44.3333 -83.6833 279° West 450 518 47,000  Level Toronto Center
08:01AM 44.3500 -83.8833 277° West 450 518 47,000  Level Toronto Center
08:02AM 44.3833 -84.0500 286° West 450 518 47,000  Level Toronto Center
08:03AM 44.3833 -84.2000 270° West 460 529 47,000  Level Toronto Center
08:03AM 44.4203 -84.2867 301° West 460 529 47,000  Level Minneapolis Center
08:04AM 44.4433 -84.4600 281° West 456 525 47,000  Level Minneapolis Center
08:05AM 44.4681 -84.6681 280° West 454 522 47,000  Level Minneapolis Center
08:06AM 44.4886 -84.8444 279° West 459 528 47,000  Level Minneapolis Center
08:07AM 44.5108 -85.0214 280° West 462 532 47,000  Level Minneapolis Center
08:08AM 44.5336 -85.1997 280° West 465 535 47,000  Level Minneapolis Center
08:09AM 44.5539 -85.3783 279° West 466 536 47,000  Level Minneapolis Center
08:10AM 44.5753 -85.5583 280° West 467 537 47,000  Level Minneapolis Center
08:11AM 44.5953 -85.7406 279° West 470 541 47,000  Level Minneapolis Center
08:12AM 44.6158 -85.9228 279° West 470 541 47,000  Level Minneapolis Center
08:13AM 44.6394 -86.1267 279° West 467 537 47,000  Level Minneapolis Center
08:14AM 44.6608 -86.3050 280° West 468 539 47,000  Level Minneapolis Center
08:16AM 44.6800 -86.4825 279° West 466 536 47,000  Level Minneapolis Center
08:17AM 44.6997 -86.6603 279° West 463 533 47,000  Level Minneapolis Center
08:18AM 44.7197 -86.8633 278° West 465 535 47,000  Level Minneapolis Center
08:19AM 44.7383 -87.0419 278° West 461 531 47,000  Level Minneapolis Center
08:20AM 44.7569 -87.2217 278° West 464 534 47,000  Level Minneapolis Center
08:21AM 44.7750 -87.4019 278° West 466 536 47,000  Level Minneapolis Center
08:22AM 44.7931 -87.5792 278° West 460 529 47,000  Level Minneapolis Center
08:23AM 44.8133 -87.7958 278° West 464 534 47,000  Level Minneapolis Center
08:24AM 44.8292 -87.9747 277° West 462 532 47,000  Level Minneapolis Center
08:25AM 44.8464 -88.1547 278° West 465 535 47,000  Level Minneapolis Center
08:26AM 44.8606 -88.3056 278° West 463 533 47,000 -300 Level Minneapolis Center
08:27AM 44.8794 -88.5142 277° West 462 532 46,500 -1,080 Descending Minneapolis Center
08:28AM 44.8950 -88.6950 277° West 464 534 44,800 -1,920 Descending Minneapolis Center
08:29AM 44.9133 -88.9075 277° West 468 539 42,600 -1,920 Descending Minneapolis Center
08:30AM 44.9297 -89.0858 277° West 461 531 40,900 -1,740 Descending Minneapolis Center
08:31AM 44.9447 -89.2628 277° West 457 526 39,100 -1,800 Descending Minneapolis Center
08:32AM 44.9592 -89.4389 277° West 453 521 37,300 -1,740 Descending Minneapolis Center
08:33AM 44.9731 -89.6172 276° West 456 525 35,600 -1,800 Descending Minneapolis Center
08:34AM 44.9872 -89.7978 276° West 459 528 33,700 -1,800 Descending Minneapolis Center
08:35AM 45.0017 -89.9794 276° West 464 534 32,000 -840 Descending Minneapolis Center
08:36AM 45.0169 -90.1997 276° West 467 537 32,000  Level Minneapolis Center
08:37AM 45.0306 -90.3828 276° West 467 537 32,000  Level Minneapolis Center
08:38AM 45.0456 -90.5664 277° West 469 540 32,000  Level Minneapolis Center
08:39AM 45.0575 -90.7489 275° West 467 537 32,000 -420 Level Minneapolis Center
08:40AM 45.0842 -90.9456 281° West 464 534 31,200 -1,320 Descending Minneapolis Center
08:41AM 45.1267 -91.0936 292° West 461 531 29,400 -2,040 Descending Minneapolis Center
08:42AM 45.1800 -91.2706 293° West 450 518 27,100 -2,100 Descending Minneapolis Center
08:43AM 45.2294 -91.4281 294° West 442 509 25,100 -1,980 Descending Minneapolis Center
08:44AM 45.2781 -91.5781 295° West 431 496 23,100 -1,980 Descending Minneapolis Center
08:45AM 45.3231 -91.7211 294° West 411 473 21,100 -2,160 Descending Minneapolis Center
08:46AM 45.3386 -91.8672 279° West 395 455 18,700 -2,520 Descending Minneapolis Center
08:47AM 45.2844 -92.0147 242° Southwest 351 404 15,900 -2,520 Descending Minneapolis Center
08:49AM 45.2397 -92.1258 240° Southwest 322 371 13,500 -2,220 Descending Minneapolis Center
08:50AM 45.1994 -92.2242 240° Southwest 285 328 11,400 -2,040 Descending Minneapolis Center
08:51AM 45.1614 -92.3150 239° Southwest 269 310 9,400 -1,680 Descending Minneapolis Center
08:52AM 45.1289 -92.4075 244° Southwest 264 304 8,000 -1,140 Descending Minneapolis Center
08:53AM 45.1331 -92.5131 273° West 270 311 7,100 -1,020 Descending Minneapolis Center
08:54AM 45.1347 -92.6364 271° West 263 303 5,900 -1,080 Descending Minneapolis Center
08:55AM 45.1364 -92.7367 271° West 257 296 4,900 -960 Descending Minneapolis Center
08:56AM 45.1094 -92.8211 246° West 249 287 4,000 -480 Descending Minneapolis Center
08:57AM 45.0617 -92.8869 224° Southwest 239 275 4,000 -240 Level Minneapolis Center
08:58AM 45.0386 -92.9561 245° Southwest 204 235 3,600 -540 Descending Minneapolis Center
08:59AM 45.0283 -93.0233 258° West 178 205 3,000 -720 Descending Minneapolis Center
09:00AM 45.0061 -93.0825 242° Southwest 138 159 2,200 -720 Descending Minneapolis Center
09:01AM 44.9731 -93.0933 193° South 125 144 1,500 -660 Descending Minneapolis Center
09:02AM 44.9414 -93.0667 149° Southeast 124 143 900 -600 Descending Minneapolis Center
09:04AM 44.9333 -93.0500 125° Southeast  Level FlightAware Approximate
09:11AM 44.9346 -93.0603 125° Southeast  Level Estimated